Verdi, Minnesota
Current Conditions -  °F | °C
As of 3:34 AM on Sunday 26 Oct 2014 (Local Time) from KPQN Reporting Station
Clear Clear  
Wind Chill: 38°   Ceiling: Unl
Heat Index: 43°   Visibility: 10mi
Dew Point: 30°   Wind: 8mph
Humidity: 61%   Direction: 130°SE
Pressure: 29.97"   Gusts: NA
Location:  44.066°N, 96.3302°W
Report Text: KPQN 260834Z AUTO 13007KT 10SM CLR 06/M01 A2997 RMK AO2
Loading
Personal Weather Stations






























Interactive Weather Map
Tropical Storm Tracking
New forecast layout! Learn more

10-Day Weather Forecast

Advertisements
Track Severe Weather on mobile